createdAt,value
2018-04-12T00:02:02.455Z,14.50
2018-04-12T00:04:29.899Z,14.50
2018-04-12T00:06:57.354Z,14.60
2018-04-12T00:09:24.807Z,14.70
2018-04-12T00:11:52.271Z,14.70
2018-04-12T00:14:19.722Z,14.70
2018-04-12T00:16:47.182Z,14.80
2018-04-12T00:19:14.635Z,14.80
2018-04-12T00:21:42.095Z,14.60
2018-04-12T00:24:09.561Z,14.50
2018-04-12T00:26:37.011Z,14.50
2018-04-12T00:29:04.518Z,14.60
2018-04-12T00:31:31.971Z,14.70
2018-04-12T00:33:59.406Z,14.70
2018-04-12T00:36:26.863Z,14.70
2018-04-12T00:38:54.411Z,14.80
2018-04-12T00:41:21.858Z,14.80
2018-04-12T00:43:49.315Z,14.80
2018-04-12T00:46:16.778Z,14.90
2018-04-12T00:48:44.243Z,14.80
2018-04-12T00:51:12.459Z,14.60
2018-04-12T00:53:51.850Z,14.60
2018-04-12T00:56:19.311Z,14.50
2018-04-12T00:58:46.774Z,14.60
2018-04-12T01:01:14.230Z,14.40
2018-04-12T01:03:41.687Z,14.40
2018-04-12T01:06:09.150Z,14.30
2018-04-12T01:08:36.603Z,14.20
2018-04-12T01:11:04.046Z,14.20
2018-04-12T01:13:31.717Z,14.10
2018-04-12T01:15:59.163Z,14.10
2018-04-12T01:18:26.631Z,14.00
2018-04-12T01:20:54.097Z,14.00
2018-04-12T01:23:21.541Z,14.00
2018-04-12T01:25:49.770Z,14.00
2018-04-12T01:28:17.227Z,14.00
2018-04-12T01:30:44.695Z,14.00
2018-04-12T01:33:16.965Z,14.10
2018-04-12T01:35:44.450Z,14.00
2018-04-12T01:38:11.914Z,13.90
2018-04-12T01:40:39.370Z,13.90
2018-04-12T01:43:07.607Z,13.90
2018-04-12T01:45:35.063Z,13.90
2018-04-12T01:48:02.516Z,13.90
2018-04-12T01:50:30.739Z,13.80
2018-04-12T01:52:58.271Z,13.80
2018-04-12T01:55:25.736Z,13.70
2018-04-12T01:57:53.217Z,13.70
2018-04-12T02:00:20.663Z,13.80
2018-04-12T02:02:48.936Z,13.80
2018-04-12T02:05:16.397Z,13.80
2018-04-12T02:07:43.852Z,13.80
2018-04-12T02:10:11.319Z,13.80
2018-04-12T02:12:39.562Z,13.70
2018-04-12T02:15:07.019Z,13.70
2018-04-12T02:17:34.488Z,13.60
2018-04-12T02:20:02.698Z,13.60
2018-04-12T02:22:30.154Z,13.60
2018-04-12T02:24:57.714Z,13.60
2018-04-12T02:27:25.160Z,13.60
2018-04-12T02:29:52.610Z,13.60
2018-04-12T02:32:20.848Z,13.50
2018-04-12T02:34:48.307Z,13.50
2018-04-12T02:37:15.762Z,13.60
2018-04-12T02:39:43.975Z,13.60
2018-04-12T02:42:11.430Z,13.60
2018-04-12T02:44:38.868Z,13.50
2018-04-12T02:47:07.093Z,13.50
2018-04-12T02:49:34.556Z,13.50
2018-04-12T02:52:02.013Z,13.50
2018-04-12T02:54:29.482Z,13.50
2018-04-12T02:56:56.926Z,13.40
2018-04-12T02:59:24.392Z,13.50
2018-04-12T03:01:52.594Z,13.40
2018-04-12T03:04:20.063Z,13.40
2018-04-12T03:06:47.513Z,13.40
2018-04-12T03:09:15.038Z,13.40
2018-04-12T03:11:42.479Z,13.40
2018-04-12T03:14:09.950Z,13.30
2018-04-12T03:16:37.404Z,13.40
2018-04-12T03:19:04.859Z,13.40
2018-04-12T03:21:33.071Z,13.40
2018-04-12T03:24:01.305Z,13.40
2018-04-12T03:26:28.769Z,13.30
2018-04-12T03:28:56.247Z,13.40
2018-04-12T03:31:23.702Z,13.40
2018-04-12T03:33:51.906Z,13.40
2018-04-12T03:36:19.358Z,13.40
2018-04-12T03:38:46.815Z,13.40
2018-04-12T03:41:14.274Z,13.40
2018-04-12T03:43:41.730Z,13.40
2018-04-12T03:46:10.078Z,13.40
2018-04-12T03:48:37.536Z,13.40
2018-04-12T03:51:04.971Z,13.50
2018-04-12T03:53:32.428Z,13.50
2018-04-12T03:56:00.634Z,13.50
2018-04-12T03:58:28.095Z,13.50
2018-04-12T04:00:55.551Z,13.40
2018-04-12T04:03:23.051Z,13.40
2018-04-12T04:05:50.504Z,13.40
2018-04-12T04:08:17.976Z,13.50
2018-04-12T04:10:45.381Z,13.60
2018-04-12T04:13:12.858Z,13.50
2018-04-12T04:15:53.121Z,13.40
2018-04-12T04:18:32.634Z,13.30
2018-04-12T04:21:07.737Z,13.30
2018-04-12T04:23:35.941Z,13.20
2018-04-12T04:26:03.383Z,13.20
2018-04-12T04:28:30.880Z,13.20
2018-04-12T04:30:59.096Z,13.10
2018-04-12T04:33:27.458Z,13.10
2018-04-12T04:35:54.900Z,13.10
2018-04-12T04:38:22.393Z,13.10
2018-04-12T04:40:51.487Z,13.10
2018-04-12T04:43:18.947Z,13.10
2018-04-12T04:45:46.415Z,13.20
2018-04-12T04:48:13.881Z,13.20
2018-04-12T04:50:41.336Z,13.30
2018-04-12T04:53:08.784Z,13.30
2018-04-12T04:55:37.095Z,13.40
2018-04-12T04:58:04.555Z,13.40
2018-04-12T05:00:32.018Z,13.40
2018-04-12T05:02:59.456Z,13.50
2018-04-12T05:05:26.930Z,13.60
2018-04-12T05:07:55.158Z,13.70
2018-04-12T05:10:22.612Z,13.70
2018-04-12T05:12:50.835Z,13.80
2018-04-12T05:15:18.295Z,13.80
2018-04-12T05:17:45.745Z,13.80
2018-04-12T05:20:13.205Z,13.80
2018-04-12T05:22:40.663Z,13.70
2018-04-12T05:25:08.121Z,13.70
2018-04-12T05:27:35.576Z,13.70
2018-04-12T05:30:03.045Z,13.70
2018-04-12T05:32:30.512Z,13.70
2018-04-12T05:34:58.063Z,13.70
2018-04-12T05:37:25.470Z,13.70
2018-04-12T05:39:52.939Z,13.60
2018-04-12T05:42:21.391Z,13.60
2018-04-12T05:44:48.846Z,13.60
2018-04-12T05:47:16.297Z,13.70
2018-04-12T05:49:43.807Z,13.80
2018-04-12T05:52:11.266Z,13.90
2018-04-12T05:54:38.776Z,14.00
2018-04-12T05:57:07.161Z,14.10
2018-04-12T05:59:34.630Z,14.20
2018-04-12T06:02:03.102Z,14.40
2018-04-12T07:26:27.655Z,14.70
2018-04-12T07:28:55.115Z,21.10
2018-04-12T07:31:23.335Z,21.50
2018-04-12T07:33:50.779Z,21.50
2018-04-12T07:36:18.236Z,21.90
2018-04-12T07:38:45.694Z,22.10
2018-04-12T07:41:13.139Z,22.40
2018-04-12T07:43:41.450Z,22.60
2018-04-12T07:46:08.861Z,22.60
2018-04-12T07:48:36.329Z,22.60
2018-04-12T07:51:04.788Z,22.60
2018-04-12T07:53:32.343Z,22.90
2018-04-12T07:55:59.799Z,22.90
2018-04-12T07:58:27.254Z,23.10
2018-04-12T08:00:54.718Z,23.10
2018-04-12T08:03:22.177Z,23.20
2018-04-12T08:05:50.391Z,23.20
2018-04-12T08:08:17.834Z,23.20
2018-04-12T08:10:45.305Z,23.30
2018-04-12T08:13:12.747Z,23.10
2018-04-12T08:15:40.206Z,23.00
2018-04-12T08:18:08.428Z,23.40
2018-04-12T08:20:35.893Z,23.40
2018-04-12T08:23:03.341Z,23.70
2018-04-12T08:25:30.792Z,23.60
2018-04-12T08:27:59.007Z,23.80
2018-04-12T08:30:26.461Z,23.80
2018-04-12T08:32:53.895Z,23.80
2018-04-12T08:35:21.355Z,23.90
2018-04-12T08:37:50.281Z,24.50
2018-04-12T08:40:17.727Z,24.50
2018-04-12T08:42:45.213Z,24.50
2018-04-12T08:45:12.666Z,24.50
2018-04-12T08:47:40.110Z,24.60
2018-04-12T08:50:07.573Z,24.70
2018-04-12T08:52:35.782Z,24.80
2018-04-12T08:55:03.239Z,24.80
2018-04-12T08:57:30.674Z,24.90
2018-04-12T08:59:58.131Z,25.10
2018-04-12T09:02:25.570Z,24.70
2018-04-12T09:04:53.016Z,24.60
2018-04-12T09:07:20.503Z,24.60
2018-04-12T09:09:47.955Z,24.90
2018-04-12T09:12:15.451Z,24.80
2018-04-12T09:14:42.869Z,24.80
2018-04-12T09:17:10.324Z,24.50
2018-04-12T09:19:37.751Z,24.50
2018-04-12T09:22:05.226Z,24.70
2018-04-12T09:24:32.663Z,24.90
2018-04-12T09:27:00.160Z,25.20
2018-04-12T09:29:27.612Z,25.00
2018-04-12T09:31:55.091Z,24.60
2018-04-12T09:34:22.522Z,24.50
2018-04-12T09:36:49.995Z,24.60
2018-04-12T09:39:17.538Z,24.70
2018-04-12T09:41:44.995Z,24.70
2018-04-12T09:44:13.212Z,24.40
2018-04-12T09:46:40.669Z,24.30
2018-04-12T09:49:08.172Z,24.40
2018-04-12T09:51:35.563Z,24.30
2018-04-12T09:54:02.995Z,24.30
2018-04-12T09:56:30.453Z,24.10
2018-04-12T09:58:57.898Z,24.10
2018-04-12T10:01:25.357Z,24.20
2018-04-12T10:03:55.343Z,24.10
2018-04-12T10:06:22.850Z,24.10
2018-04-12T10:08:56.859Z,24.00
2018-04-12T10:11:24.306Z,24.00
2018-04-12T10:13:51.758Z,23.80
2018-04-12T10:16:19.200Z,23.90
2018-04-12T10:18:46.658Z,23.80
2018-04-12T10:21:14.091Z,23.80
2018-04-12T10:23:41.533Z,24.00
2018-04-12T10:26:09.003Z,24.20
2018-04-12T10:28:37.387Z,24.40
2018-04-12T10:31:04.840Z,24.60
2018-04-12T10:33:33.199Z,24.70
2018-04-12T10:36:00.639Z,24.50
2018-04-12T10:38:28.092Z,24.50
2018-04-12T10:40:55.537Z,24.70
2018-04-12T10:43:24.083Z,24.70
2018-04-12T10:45:52.335Z,24.60
2018-04-12T10:48:20.611Z,24.10
2018-04-12T10:50:48.067Z,24.10
2018-04-12T10:53:15.586Z,24.00
2018-04-12T10:55:43.931Z,23.90
2018-04-12T10:58:12.192Z,24.00
2018-04-12T11:00:40.423Z,24.00
2018-04-12T11:03:07.894Z,24.00
2018-04-12T11:05:36.137Z,24.20
2018-04-12T11:08:03.598Z,24.20
2018-04-12T11:10:31.050Z,24.30
2018-04-12T11:12:58.475Z,24.40
2018-04-12T11:15:25.932Z,24.40
2018-04-12T11:17:54.147Z,23.90
2018-04-12T11:20:21.597Z,23.90
2018-04-12T11:22:49.180Z,23.70
2018-04-12T11:25:17.417Z,23.80
2018-04-12T11:27:44.833Z,23.70
2018-04-12T11:30:12.273Z,23.20
2018-04-12T11:32:39.744Z,22.80
2018-04-12T11:35:07.183Z,22.70
2018-04-12T11:37:34.667Z,22.70
2018-04-12T11:40:02.148Z,22.70
2018-04-12T11:42:29.590Z,22.60
2018-04-12T11:44:57.044Z,22.70
2018-04-12T11:47:24.494Z,22.80
2018-04-12T11:49:51.977Z,22.80
2018-04-12T11:52:19.415Z,23.00
2018-04-12T11:54:47.659Z,23.50
2018-04-12T11:57:15.136Z,23.40
2018-04-12T11:59:42.594Z,23.50
2018-04-12T12:02:10.050Z,23.40
2018-04-12T12:04:37.489Z,23.40
2018-04-12T12:07:04.972Z,23.40
2018-04-12T12:09:33.240Z,23.10
2018-04-12T12:12:00.699Z,23.10
2018-04-12T12:14:28.921Z,22.70
2018-04-12T12:16:56.373Z,22.70
2018-04-12T12:19:23.902Z,22.70
2018-04-12T12:21:51.372Z,22.90
2018-04-12T12:24:18.819Z,23.10
2018-04-12T12:26:47.060Z,23.50
2018-04-12T12:29:14.589Z,23.50
2018-04-12T12:31:42.063Z,23.60
2018-04-12T12:34:09.497Z,23.80
2018-04-12T12:36:37.013Z,23.90
2018-04-12T12:39:04.464Z,23.90
2018-04-12T12:41:31.922Z,24.10
2018-04-12T12:43:59.406Z,24.20
2018-04-12T12:46:27.610Z,24.40
2018-04-12T12:48:55.067Z,24.30
2018-04-12T12:51:22.508Z,24.40
2018-04-12T12:53:50.599Z,24.50
2018-04-12T12:56:18.827Z,24.60
2018-04-12T12:58:46.272Z,24.50
2018-04-12T13:01:13.725Z,24.50
2018-04-12T13:03:41.185Z,24.50
2018-04-12T13:06:08.623Z,24.50
2018-04-12T13:08:36.122Z,24.50
2018-04-12T13:11:03.594Z,24.40
2018-04-12T13:13:31.787Z,24.30
2018-04-12T13:15:59.231Z,24.20
2018-04-12T13:18:26.692Z,23.90
2018-04-12T13:20:54.140Z,23.60
2018-04-12T13:23:22.735Z,23.40
2018-04-12T13:25:50.180Z,23.30
2018-04-12T13:28:17.642Z,23.30
2018-04-12T13:30:45.095Z,23.50
2018-04-12T13:33:12.588Z,23.60
2018-04-12T13:35:39.983Z,23.70
2018-04-12T13:38:08.224Z,23.80
2018-04-12T13:40:36.459Z,23.90
2018-04-12T13:43:03.898Z,23.80
2018-04-12T13:45:31.387Z,23.80
2018-04-12T13:47:58.827Z,23.80
2018-04-12T13:50:26.287Z,23.80
2018-04-12T13:52:54.482Z,23.80
2018-04-12T13:55:21.978Z,23.70
2018-04-12T13:57:49.433Z,23.80
2018-04-12T14:00:17.670Z,23.90
2018-04-12T14:02:45.107Z,23.90
2018-04-12T14:05:14.573Z,23.90
2018-04-12T14:07:42.069Z,23.90
2018-04-12T14:10:09.544Z,23.70
2018-04-12T14:12:37.986Z,23.60
2018-04-12T14:15:05.506Z,23.60
2018-04-12T14:17:34.772Z,23.70
2018-04-12T14:20:02.300Z,23.70
2018-04-12T14:22:29.746Z,23.70
2018-04-12T14:24:57.203Z,23.70
2018-04-12T14:27:24.662Z,23.80
2018-04-12T14:29:52.884Z,23.90
2018-04-12T14:32:20.338Z,23.90
2018-04-12T14:34:47.794Z,23.70
2018-04-12T14:37:15.255Z,23.60
2018-04-12T14:39:42.712Z,23.50
2018-04-12T14:42:10.170Z,23.50
2018-04-12T14:44:37.622Z,23.40
2018-04-12T14:47:05.082Z,23.30
2018-04-12T14:49:32.849Z,23.20
2018-04-12T14:52:00.291Z,23.20
2018-04-12T14:54:27.740Z,23.10
2018-04-12T14:56:55.190Z,23.00
2018-04-12T14:59:22.653Z,22.80
2018-04-12T15:01:50.855Z,22.70
2018-04-12T15:04:18.300Z,22.70
2018-04-12T15:06:45.762Z,22.80
2018-04-12T15:09:13.239Z,22.80
2018-04-12T15:11:40.689Z,22.70
2018-04-12T15:14:09.057Z,22.60
2018-04-12T15:16:37.254Z,22.40
2018-04-12T15:19:04.805Z,22.40
2018-04-12T15:21:32.299Z,22.30
2018-04-12T15:24:00.520Z,22.10
2018-04-12T15:26:27.994Z,22.10
2018-04-12T15:28:55.442Z,22.20
2018-04-12T15:31:23.690Z,22.30
2018-04-12T15:33:51.158Z,22.20
2018-04-12T15:36:19.434Z,22.00
2018-04-12T15:38:46.895Z,22.00
2018-04-12T15:41:14.350Z,22.10
2018-04-12T15:43:41.819Z,21.90
2018-04-12T15:46:09.251Z,21.90
2018-04-12T15:48:36.710Z,21.80
2018-04-12T15:51:04.155Z,21.60
2018-04-12T15:53:31.630Z,21.50
2018-04-12T15:55:59.094Z,21.50
2018-04-12T15:58:26.782Z,21.50
2018-04-12T16:00:55.213Z,21.40
2018-04-12T16:03:22.675Z,21.40
2018-04-12T16:05:50.123Z,21.30
2018-04-12T16:08:17.641Z,21.20
2018-04-12T16:10:45.093Z,21.20
2018-04-12T16:13:12.526Z,21.10
2018-04-12T16:15:39.979Z,21.10
2018-04-12T16:18:07.459Z,21.00
2018-04-12T16:20:34.927Z,21.10
2018-04-12T16:23:03.152Z,20.90
2018-04-12T16:25:30.598Z,20.90
2018-04-12T16:27:58.066Z,20.80
2018-04-12T16:30:26.285Z,20.70
2018-04-12T16:32:53.742Z,20.70
2018-04-12T16:35:21.186Z,20.80
2018-04-12T16:37:48.660Z,20.80
2018-04-12T16:40:16.153Z,20.80
2018-04-12T16:42:43.613Z,20.80
2018-04-12T16:45:11.117Z,20.70
2018-04-12T16:47:39.339Z,20.60
2018-04-12T16:50:06.764Z,20.60
2018-04-12T16:52:34.206Z,20.50
2018-04-12T16:55:01.662Z,20.50
2018-04-12T16:57:29.118Z,20.50
2018-04-12T16:59:57.561Z,20.20
2018-04-12T17:02:24.997Z,20.20
2018-04-12T17:04:52.486Z,20.10
2018-04-12T17:07:19.965Z,20.10
2018-04-12T17:09:47.423Z,20.10
2018-04-12T17:12:14.920Z,20.10
2018-04-12T17:14:42.343Z,20.20
2018-04-12T17:17:09.796Z,20.20
2018-04-12T17:19:38.032Z,20.10
2018-04-12T17:22:05.519Z,20.10
2018-04-12T17:24:33.010Z,20.00
2018-04-12T17:27:00.452Z,19.80
2018-04-12T17:29:27.898Z,19.70
2018-04-12T17:31:55.346Z,19.80
2018-04-12T17:34:22.802Z,19.70
2018-04-12T17:36:51.006Z,19.90
2018-04-12T17:39:18.467Z,19.90
2018-04-12T17:41:45.911Z,19.90
2018-04-12T17:44:13.349Z,19.90
2018-04-12T17:46:42.709Z,19.90
2018-04-12T17:49:10.167Z,19.90
2018-04-12T17:51:37.618Z,19.80
2018-04-12T17:54:05.049Z,19.80
2018-04-12T17:56:33.429Z,19.70
2018-04-12T17:59:00.914Z,19.70
2018-04-12T18:01:28.373Z,19.60
2018-04-12T18:03:55.879Z,19.60
2018-04-12T18:06:23.356Z,19.50
2018-04-12T18:08:50.795Z,19.50
2018-04-12T18:11:19.017Z,19.40
2018-04-12T18:13:46.531Z,19.40
2018-04-12T18:16:13.992Z,19.30
2018-04-12T18:18:41.458Z,19.30
2018-04-12T18:21:08.922Z,19.30
2018-04-12T18:23:37.144Z,19.20
2018-04-12T18:26:04.595Z,19.20
2018-04-12T18:28:32.060Z,19.20
2018-04-12T18:30:59.547Z,19.10
2018-04-12T18:33:26.982Z,19.10
2018-04-12T18:35:54.454Z,19.10
2018-04-12T18:38:21.896Z,19.00
2018-04-12T18:40:49.750Z,19.10
2018-04-12T18:43:17.775Z,19.00
2018-04-12T18:45:45.234Z,18.90
2018-04-12T18:48:12.684Z,18.90
2018-04-12T18:50:40.172Z,18.90
2018-04-12T18:53:07.629Z,18.80
2018-04-12T18:55:35.088Z,18.70
2018-04-12T18:58:02.542Z,18.70
2018-04-12T19:00:29.995Z,18.70
2018-04-12T19:02:57.458Z,18.60
2018-04-12T19:05:25.665Z,18.60
2018-04-12T19:07:53.148Z,18.60
2018-04-12T19:10:20.591Z,18.60
2018-04-12T19:12:48.030Z,18.60
2018-04-12T19:15:15.474Z,18.50
2018-04-12T19:17:43.013Z,18.50
2018-04-12T19:20:10.444Z,18.40
2018-04-12T19:22:37.903Z,18.40
2018-04-12T19:25:05.384Z,18.30
2018-04-12T19:27:32.915Z,18.30
2018-04-12T19:30:00.342Z,18.20
2018-04-12T19:32:27.795Z,18.20
2018-04-12T19:34:56.004Z,18.20
2018-04-12T19:37:23.457Z,18.10
2018-04-12T19:39:50.969Z,18.10
2018-04-12T19:42:19.453Z,18.00
2018-04-12T19:44:46.917Z,17.90
2018-04-12T19:47:14.414Z,17.70
2018-04-12T19:49:41.845Z,17.70
2018-04-12T19:52:10.081Z,17.70
2018-04-12T19:54:37.534Z,17.60
2018-04-12T19:57:05.763Z,17.60
2018-04-12T19:59:34.296Z,17.60
2018-04-12T20:02:01.769Z,17.60
2018-04-12T20:04:29.222Z,17.50
2018-04-12T20:06:56.719Z,17.40
2018-04-12T20:09:24.195Z,17.40
2018-04-12T20:11:51.684Z,17.30
2018-04-12T20:14:19.190Z,17.20
2018-04-12T20:16:46.661Z,17.20
2018-04-12T20:19:14.123Z,17.20
2018-04-12T20:21:41.579Z,17.10
2018-04-12T20:24:09.035Z,17.00
2018-04-12T20:26:36.526Z,17.00
2018-04-12T20:29:04.022Z,16.90
2018-04-12T20:31:31.458Z,16.80
2018-04-12T20:33:58.956Z,16.70
2018-04-12T20:36:26.396Z,16.50
2018-04-12T20:38:54.642Z,16.40
2018-04-12T20:41:22.133Z,16.40
2018-04-12T20:43:50.365Z,16.30
2018-04-12T20:46:17.850Z,16.30
2018-04-12T20:48:45.311Z,16.20
2018-04-12T20:51:14.507Z,16.20
2018-04-12T20:53:42.800Z,16.00
2018-04-12T20:56:10.240Z,16.00
2018-04-12T20:58:37.698Z,15.90
2018-04-12T21:01:05.153Z,15.80
2018-04-12T21:03:32.713Z,15.80
2018-04-12T21:06:00.162Z,15.70
2018-04-12T21:08:27.623Z,15.60
2018-04-12T21:10:55.085Z,15.50
2018-04-12T21:13:22.535Z,15.40
2018-04-12T21:15:50.002Z,15.30
2018-04-12T21:18:17.458Z,15.30
2018-04-12T21:20:44.923Z,15.30
2018-04-12T21:23:12.376Z,15.40
2018-04-12T21:25:39.848Z,15.40
2018-04-12T21:28:07.288Z,15.40
2018-04-12T21:30:34.760Z,15.40
2018-04-12T21:33:02.200Z,15.50
2018-04-12T21:35:29.676Z,15.50
2018-04-12T21:37:57.124Z,15.40
2018-04-12T21:40:24.633Z,15.40
2018-04-12T21:42:52.092Z,15.40
2018-04-12T21:45:19.566Z,15.30
2018-04-12T21:47:47.827Z,15.20
2018-04-12T21:50:16.051Z,15.10
2018-04-12T21:52:43.637Z,15.10
2018-04-12T21:55:11.984Z,14.80
2018-04-12T21:57:40.237Z,14.80
2018-04-12T22:00:07.695Z,14.80
2018-04-12T22:02:35.183Z,14.90
2018-04-12T22:05:02.689Z,14.80
2018-04-12T22:07:30.939Z,14.70
2018-04-12T22:09:58.399Z,14.70
2018-04-12T22:12:26.696Z,14.70
2018-04-12T22:14:54.177Z,14.70
2018-04-12T22:17:21.686Z,14.60
2018-04-12T22:19:49.146Z,14.60
2018-04-12T22:22:16.653Z,14.70
2018-04-12T22:24:44.114Z,14.70
2018-04-12T22:27:11.564Z,14.80
2018-04-12T22:29:40.132Z,14.90
2018-04-12T22:32:07.601Z,14.90
2018-04-12T22:34:35.063Z,14.90
2018-04-12T22:37:02.530Z,14.90
2018-04-12T22:39:29.977Z,15.00
2018-04-12T22:41:57.445Z,14.90
2018-04-12T22:44:24.894Z,14.90
2018-04-12T22:46:52.350Z,14.80
2018-04-12T22:49:19.808Z,14.70
2018-04-12T22:51:47.268Z,14.60
2018-04-12T22:54:14.701Z,14.50
2018-04-12T22:56:42.178Z,14.30
2018-04-12T22:59:10.586Z,14.20
2018-04-12T23:01:38.095Z,14.20
2018-04-12T23:04:05.553Z,14.20
2018-04-12T23:06:33.077Z,14.20
2018-04-12T23:09:00.488Z,14.00
2018-04-12T23:11:27.943Z,13.90
2018-04-12T23:13:55.402Z,13.80
2018-04-12T23:16:22.847Z,13.80
2018-04-12T23:18:50.303Z,13.70
2018-04-12T23:21:17.754Z,13.70
2018-04-12T23:23:45.218Z,13.80
2018-04-12T23:26:12.659Z,13.80
2018-04-12T23:28:40.113Z,13.80
2018-04-12T23:31:07.555Z,13.70
2018-04-12T23:33:35.081Z,13.70
2018-04-12T23:36:02.535Z,13.70
2018-04-12T23:38:29.993Z,13.60
2018-04-12T23:40:57.521Z,13.60
2018-04-12T23:43:24.988Z,13.60
2018-04-12T23:45:52.438Z,13.60
2018-04-12T23:48:19.909Z,13.50
2018-04-12T23:50:49.113Z,13.10
2018-04-12T23:53:16.577Z,13.10
2018-04-12T23:55:45.028Z,13.00
2018-04-12T23:58:12.488Z,13.10
